Terminal Aerodrome Forecast
Issued by NWS Sioux Falls, SD

Home | Current Version | Previous Version | Graphics & Text | Print | Product List | Glossary Off
Versions: 1 2 3 4 5 6 7 8 9 10 11 12

000
FTUS43 KFSD 171100
TAFFSD
TAF
KFSD 171135Z 1712/1812 VRB03KT P6SM SKC
      TEMPO 1712/1714 4SM BR BKN005
     FM171400 27004KT P6SM BKN008
     FM171700 29005KT P6SM BKN015
     FM171900 27005KT P6SM SCT025
     FM180600 19005KT P6SM BKN080=

USA.gov is the U.S. government's official web portal to all federal, state and local government web resources and services.